CheckWX is a tool to help pilots better visualize weather data.  It is not intended as a substitute for an official pre-flight weather briefing.

00:13:15 UTC

KRNH TAF
New Richmond Regional Airport
New Richmond, Wisconsin, USA
KRNH 222326Z 2300/2324 28017G28KT P6SM OVC025 FM230700 28010KT P6SM BKN035 FM231100 27007KT P6SM BKN035 FM232000 31008KT P6SM OVC026

Oct-23@
00:00 UTC

Oct-23 @ 00:00 UTC

Oct-23@
07:00 UTC

Oct-23 @ 07:00 UTC

KRNH 222326Z 2300/2324 28017G28KT P6SM OVC025
Wind
  • 280° at 17 KTS
  • {Gusting to 28 KTS
Cloud Levels
  • Overcast at 2,500' AGL

Oct-23@
07:00 UTC

Oct-23 @ 07:00 UTC

Oct-23@
11:00 UTC

Oct-23 @ 11:00 UTC

FM230700 28010KT P6SM BKN035

From

From Standard forecast or significant change

Wind
  • 280° at 10 KTS
Cloud Levels
  • Broken at 3,500' AGL

Oct-23@
11:00 UTC

Oct-23 @ 11:00 UTC

Oct-23@
20:00 UTC

Oct-23 @ 20:00 UTC

FM231100 27007KT P6SM BKN035

From

From Standard forecast or significant change

Wind
  • 270° at 7 KTS
Cloud Levels
  • Broken at 3,500' AGL

Oct-23@
20:00 UTC

Oct-23 @ 20:00 UTC

Oct-24@
00:00 UTC

Oct-24 @ 00:00 UTC

FM232000 31008KT P6SM OVC026

From

From Standard forecast or significant change

Wind
  • 310° at 8 KTS
Cloud Levels
  • Overcast at 2,600' AGL